createdAt,value
2017-11-08T00:01:22.360Z,99.99
2017-11-08T00:02:22.411Z,99.99
2017-11-08T00:04:15.937Z,99.99
2017-11-08T00:05:15.681Z,99.99
2017-11-08T00:07:10.223Z,99.99
2017-11-08T00:08:10.130Z,99.99
2017-11-08T00:10:03.479Z,99.99
2017-11-08T00:11:03.577Z,99.99
2017-11-08T00:12:57.032Z,99.99
2017-11-08T00:13:56.973Z,99.99
2017-11-08T00:15:51.320Z,99.99
2017-11-08T00:16:51.348Z,99.99
2017-11-08T00:18:45.736Z,99.99
2017-11-08T00:19:45.787Z,99.99
2017-11-08T00:21:39.187Z,99.99
2017-11-08T00:22:39.101Z,99.99
2017-11-08T00:24:33.481Z,99.99
2017-11-08T00:25:33.562Z,99.99
2017-11-08T00:27:28.077Z,99.99
2017-11-08T00:28:27.851Z,99.99
2017-11-08T00:30:22.324Z,99.99
2017-11-08T00:31:22.386Z,99.99
2017-11-08T00:33:15.645Z,99.99
2017-11-08T00:34:15.794Z,99.99
2017-11-08T00:36:09.079Z,99.99
2017-11-08T00:37:09.334Z,99.99
2017-11-08T00:39:02.624Z,99.99
2017-11-08T00:40:02.529Z,99.99
2017-11-08T00:41:56.888Z,99.99
2017-11-08T00:42:57.005Z,99.99
2017-11-08T00:44:50.425Z,99.99
2017-11-08T00:45:50.364Z,99.99
2017-11-08T00:47:43.804Z,99.99
2017-11-08T00:48:43.698Z,99.99
2017-11-08T00:50:37.066Z,99.99
2017-11-08T00:51:37.063Z,99.99
2017-11-08T00:53:31.629Z,99.99
2017-11-08T00:54:31.467Z,99.99
2017-11-08T00:56:24.924Z,99.99
2017-11-08T00:57:24.935Z,99.99
2017-11-08T00:59:18.249Z,99.99
2017-11-08T01:00:18.397Z,99.99
2017-11-08T01:02:12.293Z,99.99
2017-11-08T01:03:11.705Z,99.99
2017-11-08T01:05:05.080Z,99.99
2017-11-08T01:06:05.100Z,99.99
2017-11-08T01:07:58.411Z,99.99
2017-11-08T01:08:58.566Z,99.99
2017-11-08T01:10:51.869Z,99.99
2017-11-08T01:11:51.949Z,99.99
2017-11-08T01:13:46.393Z,99.99
2017-11-08T01:14:46.286Z,99.99
2017-11-08T01:16:39.862Z,99.99
2017-11-08T01:17:39.589Z,99.99
2017-11-08T01:19:34.217Z,99.99
2017-11-08T01:20:34.049Z,99.99
2017-11-08T01:22:28.466Z,99.99
2017-11-08T01:23:28.563Z,99.99
2017-11-08T01:25:21.862Z,99.99
2017-11-08T01:26:21.945Z,99.99
2017-11-08T01:28:16.160Z,99.99
2017-11-08T01:29:16.430Z,99.99
2017-11-08T01:31:10.614Z,99.99
2017-11-08T01:32:10.684Z,99.99
2017-11-08T01:34:04.998Z,99.99
2017-11-08T01:35:05.151Z,99.99
2017-11-08T01:36:58.459Z,99.99
2017-11-08T01:37:58.598Z,99.99
2017-11-08T01:39:51.768Z,99.99
2017-11-08T01:40:51.916Z,99.99
2017-11-08T01:42:45.168Z,99.99
2017-11-08T01:43:45.251Z,99.99
2017-11-08T01:45:39.696Z,99.99
2017-11-08T01:46:39.678Z,99.99
2017-11-08T01:48:34.080Z,99.99
2017-11-08T01:49:34.070Z,99.99
2017-11-08T01:51:28.411Z,99.99
2017-11-08T01:52:28.386Z,99.99
2017-11-08T01:54:22.746Z,99.99
2017-11-08T01:55:22.797Z,99.99
2017-11-08T01:57:16.167Z,99.99
2017-11-08T01:58:16.276Z,99.99
2017-11-08T02:00:10.729Z,99.99
2017-11-08T02:01:10.571Z,99.99
2017-11-08T02:03:04.995Z,99.99
2017-11-08T02:04:05.111Z,99.99
2017-11-08T02:05:59.372Z,99.99
2017-11-08T02:06:59.428Z,99.99
2017-11-08T02:08:54.000Z,99.99
2017-11-08T02:09:53.805Z,99.99
2017-11-08T02:11:47.327Z,99.99
2017-11-08T02:12:47.170Z,99.99
2017-11-08T02:14:40.562Z,99.99
2017-11-08T02:15:40.696Z,99.99
2017-11-08T02:17:34.999Z,99.99
2017-11-08T02:18:35.075Z,99.99
2017-11-08T02:20:29.314Z,99.99
2017-11-08T02:21:29.701Z,99.99
2017-11-08T02:23:23.801Z,99.99
2017-11-08T02:24:23.951Z,99.99
2017-11-08T02:26:17.130Z,99.99
2017-11-08T02:27:17.270Z,99.99
2017-11-08T02:29:10.629Z,99.99
2017-11-08T02:30:10.605Z,99.99
2017-11-08T02:32:03.993Z,99.99
2017-11-08T02:33:03.947Z,99.99
2017-11-08T02:34:57.431Z,99.99
2017-11-08T02:35:57.496Z,99.99
2017-11-08T02:37:51.933Z,99.99
2017-11-08T02:38:51.727Z,99.99
2017-11-08T02:40:46.383Z,99.99
2017-11-08T02:41:46.157Z,99.99
2017-11-08T02:43:40.706Z,99.99
2017-11-08T02:44:40.486Z,99.99
2017-11-08T02:46:33.988Z,99.99
2017-11-08T02:47:33.981Z,99.99
2017-11-08T02:49:27.483Z,99.99
2017-11-08T02:50:27.334Z,99.99
2017-11-08T02:52:21.716Z,99.99
2017-11-08T02:53:21.824Z,99.99
2017-11-08T02:55:15.309Z,99.99
2017-11-08T02:56:15.187Z,99.99
2017-11-08T02:58:10.736Z,99.99
2017-11-08T02:59:10.655Z,99.99
2017-11-08T03:01:04.107Z,99.99
2017-11-08T03:02:04.010Z,99.99
2017-11-08T03:03:57.772Z,99.99
2017-11-08T03:04:57.363Z,99.99
2017-11-08T03:06:51.659Z,99.99
2017-11-08T03:07:51.937Z,99.99
2017-11-08T03:09:45.117Z,99.99
2017-11-08T03:10:45.275Z,99.99
2017-11-08T03:12:38.514Z,99.99
2017-11-08T03:13:38.635Z,99.99
2017-11-08T03:15:33.218Z,99.99
2017-11-08T03:16:32.966Z,99.99
2017-11-08T03:18:26.278Z,99.99
2017-11-08T03:19:26.450Z,99.99
2017-11-08T03:21:20.671Z,99.99
2017-11-08T03:22:21.041Z,99.99
2017-11-08T03:24:14.262Z,99.99
2017-11-08T03:25:14.177Z,99.99
2017-11-08T03:27:08.511Z,99.99
2017-11-08T03:28:08.458Z,99.99
2017-11-08T03:30:01.927Z,99.99
2017-11-08T03:31:02.226Z,99.99
2017-11-08T03:32:57.465Z,99.99
2017-11-08T03:33:57.281Z,99.99
2017-11-08T03:35:51.775Z,99.99
2017-11-08T03:36:51.756Z,99.99
2017-11-08T03:38:46.042Z,99.99
2017-11-08T03:39:54.665Z,99.99
2017-11-08T03:41:39.407Z,99.99
2017-11-08T03:42:39.577Z,99.99
2017-11-08T03:44:34.075Z,99.99
2017-11-08T03:45:33.885Z,99.99
2017-11-08T03:47:28.385Z,99.99
2017-11-08T03:48:28.300Z,99.99
2017-11-08T03:50:22.582Z,99.99
2017-11-08T03:51:22.991Z,99.99
2017-11-08T03:53:17.148Z,99.99
2017-11-08T03:54:17.061Z,99.99
2017-11-08T03:56:10.612Z,99.99
2017-11-08T03:57:10.668Z,99.99
2017-11-08T03:59:04.952Z,99.99
2017-11-08T04:00:04.909Z,99.99
2017-11-08T04:01:58.400Z,99.99
2017-11-08T04:02:58.311Z,99.99
2017-11-08T04:04:51.600Z,99.99
2017-11-08T04:05:51.688Z,99.99
2017-11-08T04:07:45.173Z,99.99
2017-11-08T04:08:45.145Z,99.99
2017-11-08T04:10:39.368Z,99.99
2017-11-08T04:11:39.636Z,99.99
2017-11-08T04:13:33.789Z,99.99
2017-11-08T04:14:34.079Z,99.99
2017-11-08T04:16:27.186Z,99.99
2017-11-08T04:17:27.372Z,99.99
2017-11-08T04:19:20.930Z,99.99
2017-11-08T04:20:20.821Z,99.99
2017-11-08T04:22:15.233Z,99.99
2017-11-08T04:23:15.097Z,99.99
2017-11-08T04:25:09.563Z,99.99
2017-11-08T04:26:09.618Z,99.99
2017-11-08T04:28:02.780Z,99.99
2017-11-08T04:29:02.887Z,99.99
2017-11-08T04:30:57.179Z,99.99
2017-11-08T04:31:57.297Z,99.99
2017-11-08T04:33:51.904Z,99.99
2017-11-08T04:34:51.781Z,99.99
2017-11-08T04:36:46.152Z,99.99
2017-11-08T04:37:46.075Z,99.99
2017-11-08T04:39:39.737Z,99.99
2017-11-08T04:40:39.575Z,99.99
2017-11-08T04:42:33.914Z,99.99
2017-11-08T04:43:41.482Z,99.99
2017-11-08T04:45:28.448Z,99.99
2017-11-08T04:46:28.511Z,99.99
2017-11-08T04:48:22.642Z,99.99
2017-11-08T04:49:22.740Z,99.99
2017-11-08T04:51:17.264Z,99.99
2017-11-08T04:52:17.337Z,99.99
2017-11-08T04:54:10.347Z,99.99
2017-11-08T04:55:10.623Z,99.99
2017-11-08T04:57:04.830Z,99.99
2017-11-08T04:58:05.117Z,99.99
2017-11-08T04:59:59.383Z,99.99
2017-11-08T05:00:59.201Z,99.99
2017-11-08T05:02:52.787Z,99.99
2017-11-08T05:03:52.780Z,99.99
2017-11-08T05:05:47.216Z,99.99
2017-11-08T05:06:54.622Z,99.99
2017-11-08T05:08:41.660Z,99.99
2017-11-08T05:09:41.370Z,99.99
2017-11-08T05:11:35.763Z,99.99
2017-11-08T05:12:35.960Z,99.99
2017-11-08T05:14:29.321Z,99.99
2017-11-08T05:15:29.151Z,99.99
2017-11-08T05:17:22.703Z,99.99
2017-11-08T05:18:22.583Z,99.99
2017-11-08T05:20:16.250Z,99.99
2017-11-08T05:21:16.036Z,99.99
2017-11-08T05:23:10.520Z,99.99
2017-11-08T05:24:10.455Z,99.99
2017-11-08T05:26:11.838Z,99.99
2017-11-08T05:27:11.433Z,99.99
2017-11-08T05:28:58.093Z,99.99
2017-11-08T05:29:58.318Z,99.99
2017-11-08T05:31:51.739Z,99.99
2017-11-08T05:32:51.703Z,99.99
2017-11-08T05:34:44.943Z,99.99
2017-11-08T05:35:45.137Z,99.99
2017-11-08T05:37:38.493Z,99.99
2017-11-08T05:38:38.561Z,99.99
2017-11-08T05:40:31.775Z,99.99
2017-11-08T05:41:31.894Z,99.99
2017-11-08T05:43:25.138Z,99.99
2017-11-08T05:44:25.153Z,99.99
2017-11-08T05:46:19.601Z,99.99
2017-11-08T05:47:28.141Z,99.99
2017-11-08T05:49:12.924Z,99.99
2017-11-08T05:50:13.032Z,99.99
2017-11-08T05:52:06.826Z,99.99
2017-11-08T05:53:06.505Z,99.99
2017-11-08T05:54:59.746Z,99.99
2017-11-08T05:55:59.965Z,99.99
2017-11-08T05:57:54.387Z,99.99
2017-11-08T05:58:54.195Z,99.99
2017-11-08T06:00:47.514Z,99.99
2017-11-08T06:01:47.729Z,99.99
2017-11-08T06:03:41.137Z,99.99
2017-11-08T06:04:41.173Z,99.99
2017-11-08T06:06:35.490Z,99.99
2017-11-08T06:07:35.318Z,99.99
2017-11-08T06:09:28.862Z,99.99
2017-11-08T06:10:28.877Z,99.99
2017-11-08T06:12:23.070Z,99.99
2017-11-08T06:13:23.240Z,99.99
2017-11-08T06:15:16.647Z,99.99
2017-11-08T06:16:16.507Z,99.99
2017-11-08T06:18:09.911Z,99.99
2017-11-08T06:19:09.915Z,99.99
2017-11-08T06:21:03.686Z,99.99
2017-11-08T06:22:03.361Z,99.99
2017-11-08T06:23:56.801Z,99.99
2017-11-08T06:24:56.721Z,99.99
2017-11-08T06:26:51.166Z,99.99
2017-11-08T06:27:51.134Z,99.99
2017-11-08T06:29:45.579Z,99.99
2017-11-08T06:30:45.545Z,99.99
2017-11-08T06:32:39.859Z,99.99
2017-11-08T06:33:39.932Z,99.99
2017-11-08T06:35:33.374Z,99.99
2017-11-08T06:36:33.304Z,99.99
2017-11-08T06:38:26.818Z,99.99
2017-11-08T06:39:26.804Z,99.99
2017-11-08T06:41:20.027Z,99.99
2017-11-08T06:42:20.111Z,99.99
2017-11-08T06:44:13.509Z,99.99
2017-11-08T06:45:13.486Z,99.99
2017-11-08T06:47:06.968Z,99.99
2017-11-08T06:48:06.929Z,99.99
2017-11-08T06:50:01.254Z,99.99
2017-11-08T06:51:01.221Z,99.99
2017-11-08T06:52:54.777Z,99.99
2017-11-08T06:53:54.722Z,99.99
2017-11-08T06:55:48.194Z,99.99
2017-11-08T06:56:48.010Z,99.99
2017-11-08T06:58:41.497Z,99.99
2017-11-08T06:59:41.543Z,99.99
2017-11-08T07:01:35.807Z,99.99
2017-11-08T07:02:35.976Z,99.99
2017-11-08T07:04:29.293Z,99.99
2017-11-08T07:05:29.315Z,99.99
2017-11-08T07:07:23.723Z,99.99
2017-11-08T07:08:23.680Z,99.99
2017-11-08T07:10:17.185Z,99.99
2017-11-08T07:11:17.032Z,99.99
2017-11-08T07:13:11.449Z,99.99
2017-11-08T07:14:11.493Z,99.99
2017-11-08T07:16:05.770Z,99.99
2017-11-08T07:17:05.855Z,99.99
2017-11-08T07:19:00.359Z,99.99
2017-11-08T07:20:07.801Z,99.99
2017-11-08T07:21:53.599Z,99.99
2017-11-08T07:22:53.586Z,99.99
2017-11-08T07:24:46.791Z,99.99
2017-11-08T07:25:46.620Z,99.99
2017-11-08T07:27:40.944Z,99.99
2017-11-08T07:28:40.978Z,99.99
2017-11-08T07:30:34.633Z,99.99
2017-11-08T07:31:34.334Z,99.99
2017-11-08T07:33:27.678Z,99.99
2017-11-08T07:34:27.860Z,99.99
2017-11-08T07:36:22.152Z,99.99
2017-11-08T07:37:22.156Z,99.99
2017-11-08T07:39:16.755Z,99.99
2017-11-08T07:40:16.452Z,99.99
2017-11-08T07:42:09.985Z,99.99
2017-11-08T07:43:09.896Z,99.99
2017-11-08T07:45:03.417Z,99.99
2017-11-08T07:46:03.376Z,99.99
2017-11-08T07:47:57.812Z,99.99
2017-11-08T07:48:57.761Z,99.99
2017-11-08T07:50:51.271Z,99.99
2017-11-08T07:51:51.239Z,99.99
2017-11-08T07:53:44.427Z,99.99
2017-11-08T07:54:44.549Z,99.99
2017-11-08T07:56:37.859Z,99.99
2017-11-08T07:57:37.869Z,99.99
2017-11-08T07:59:32.257Z,99.99
2017-11-08T08:00:32.271Z,99.99
2017-11-08T08:02:25.642Z,99.99
2017-11-08T08:03:25.670Z,99.99
2017-11-08T08:05:19.034Z,99.99
2017-11-08T08:06:19.010Z,99.99
2017-11-08T08:08:12.417Z,99.99
2017-11-08T08:09:12.414Z,99.99
2017-11-08T08:11:05.829Z,99.99
2017-11-08T08:12:05.788Z,99.99
2017-11-08T08:14:00.190Z,99.99
2017-11-08T08:15:00.210Z,99.99
2017-11-08T08:16:53.637Z,99.99
2017-11-08T08:17:53.604Z,99.99
2017-11-08T08:19:46.959Z,99.99
2017-11-08T08:20:46.967Z,99.99
2017-11-08T08:22:40.403Z,99.99
2017-11-08T08:23:40.378Z,99.99
2017-11-08T08:25:33.723Z,99.99
2017-11-08T08:26:33.795Z,99.99
2017-11-08T08:28:27.159Z,99.99
2017-11-08T08:29:27.143Z,99.99
2017-11-08T08:31:20.522Z,99.99
2017-11-08T08:32:20.594Z,99.99
2017-11-08T08:34:14.007Z,99.99
2017-11-08T08:35:13.945Z,99.99
2017-11-08T08:37:08.428Z,99.99
2017-11-08T08:38:08.337Z,99.99
2017-11-08T08:40:01.738Z,99.99
2017-11-08T08:41:01.766Z,99.99
2017-11-08T08:42:55.128Z,99.99
2017-11-08T08:43:55.127Z,99.99
2017-11-08T08:45:48.561Z,99.99
2017-11-08T08:46:48.547Z,99.99
2017-11-08T08:48:41.899Z,99.99
2017-11-08T08:49:41.942Z,99.99
2017-11-08T08:51:35.366Z,99.99
2017-11-08T08:52:35.303Z,99.99
2017-11-08T08:54:28.743Z,99.99
2017-11-08T08:55:28.676Z,99.99
2017-11-08T08:57:22.105Z,99.99
2017-11-08T08:58:22.079Z,99.99
2017-11-08T09:00:15.425Z,99.99
2017-11-08T09:01:15.483Z,99.99
2017-11-08T09:03:08.876Z,99.99
2017-11-08T09:04:08.855Z,99.99
2017-11-08T09:06:02.306Z,99.99
2017-11-08T09:07:02.268Z,99.99
2017-11-08T09:08:55.626Z,99.99
2017-11-08T09:09:55.669Z,99.99
2017-11-08T09:11:50.073Z,99.99
2017-11-08T09:12:50.054Z,99.99
2017-11-08T09:14:43.474Z,99.99
2017-11-08T09:15:43.416Z,99.99
2017-11-08T09:17:36.854Z,99.99
2017-11-08T09:18:36.844Z,99.99
2017-11-08T09:20:30.210Z,99.99
2017-11-08T09:21:30.272Z,99.99
2017-11-08T09:23:24.646Z,99.99
2017-11-08T09:24:24.614Z,99.99
2017-11-08T09:26:18.002Z,99.99
2017-11-08T09:27:18.045Z,99.99
2017-11-08T09:29:11.494Z,99.99
2017-11-08T09:30:11.435Z,99.99
2017-11-08T09:32:04.831Z,99.99
2017-11-08T09:33:04.811Z,99.99
2017-11-08T09:34:58.204Z,99.99
2017-11-08T09:35:58.263Z,99.99
2017-11-08T09:37:51.601Z,99.99
2017-11-08T09:38:51.646Z,99.99
2017-11-08T09:40:45.021Z,99.99
2017-11-08T09:41:45.007Z,99.99
2017-11-08T09:43:38.393Z,99.99
2017-11-08T09:44:38.453Z,99.99
2017-11-08T09:46:31.796Z,99.99
2017-11-08T09:47:31.817Z,99.99
2017-11-08T09:49:25.185Z,99.99
2017-11-08T09:50:25.225Z,99.99
2017-11-08T09:52:18.617Z,99.99
2017-11-08T09:53:18.610Z,99.99
2017-11-08T09:55:12.039Z,99.99
2017-11-08T09:56:12.092Z,99.99
2017-11-08T09:58:06.566Z,99.99
2017-11-08T09:59:06.363Z,99.99
2017-11-08T10:00:59.307Z,99.99
2017-11-08T10:01:59.388Z,99.99
2017-11-08T10:03:52.681Z,99.99
2017-11-08T10:04:52.748Z,99.99
2017-11-08T10:06:46.089Z,99.99
2017-11-08T10:07:46.081Z,99.99
2017-11-08T10:09:39.586Z,99.99
2017-11-08T10:10:39.585Z,99.99
2017-11-08T10:12:32.929Z,99.99
2017-11-08T10:13:32.967Z,99.99
2017-11-08T10:15:26.362Z,98.97
2017-11-08T10:16:26.321Z,99.35
2017-11-08T10:18:20.708Z,99.83
2017-11-08T10:19:20.781Z,99.99
2017-11-08T10:21:14.175Z,99.92
2017-11-08T10:22:14.155Z,99.99
2017-11-08T10:24:07.556Z,99.99
2017-11-08T10:25:07.559Z,99.99
2017-11-08T10:27:00.942Z,99.44
2017-11-08T10:28:00.917Z,99.92
2017-11-08T10:29:54.414Z,99.83
2017-11-08T10:30:54.386Z,99.92
2017-11-08T10:32:47.767Z,99.35
2017-11-08T10:33:47.763Z,99.99
2017-11-08T10:35:41.139Z,99.99
2017-11-08T10:36:41.180Z,99.99
2017-11-08T10:38:35.609Z,99.92
2017-11-08T10:39:35.634Z,99.26
2017-11-08T10:41:28.925Z,99.54
2017-11-08T10:42:29.378Z,99.99
2017-11-08T10:44:23.321Z,99.99
2017-11-08T10:45:23.288Z,99.83
2017-11-08T10:47:17.707Z,99.54
2017-11-08T10:48:17.640Z,99.26
2017-11-08T10:50:11.072Z,99.99
2017-11-08T10:51:11.053Z,99.73
2017-11-08T10:53:04.510Z,99.64
2017-11-08T10:54:04.489Z,99.99
2017-11-08T10:55:58.892Z,98.69
2017-11-08T10:56:58.869Z,98.31
2017-11-08T10:58:52.312Z,99.69
2017-11-08T10:59:52.278Z,99.50
2017-11-08T11:01:45.687Z,98.74
2017-11-08T11:02:45.727Z,99.69
2017-11-08T11:04:40.167Z,98.17
2017-11-08T11:05:40.163Z,98.07
2017-11-08T11:07:33.561Z,97.50
2017-11-08T11:08:33.509Z,97.50
2017-11-08T11:10:26.910Z,97.22
2017-11-08T11:11:26.901Z,96.55
2017-11-08T11:13:21.325Z,97.60
2017-11-08T11:14:21.325Z,98.26
2017-11-08T11:16:14.730Z,97.22
2017-11-08T11:17:14.726Z,98.36
2017-11-08T11:19:08.192Z,96.74
2017-11-08T11:20:08.143Z,97.78
2017-11-08T11:22:02.534Z,98.45
2017-11-08T11:23:02.531Z,98.07
2017-11-08T11:24:56.956Z,98.26
2017-11-08T11:25:56.884Z,98.36
2017-11-08T11:27:50.317Z,98.55
2017-11-08T11:28:50.310Z,97.69
2017-11-08T11:30:44.731Z,98.45
2017-11-08T11:31:44.715Z,98.17
2017-11-08T11:33:38.173Z,97.97
2017-11-08T11:34:45.780Z,98.36
2017-11-08T11:36:31.553Z,97.97
2017-11-08T11:37:31.544Z,98.55
2017-11-08T11:39:24.945Z,98.26
2017-11-08T11:40:24.934Z,97.41
2017-11-08T11:42:18.315Z,97.60
2017-11-08T11:43:18.357Z,97.88
2017-11-08T11:45:11.717Z,98.07
2017-11-08T11:46:11.728Z,97.69
2017-11-08T11:48:05.123Z,97.31
2017-11-08T11:49:05.097Z,97.78
2017-11-08T11:50:59.541Z,97.50
2017-11-08T11:51:59.580Z,97.69
2017-11-08T11:53:53.030Z,97.50
2017-11-08T11:54:52.960Z,97.41
2017-11-08T11:56:47.351Z,97.41
2017-11-08T11:57:47.332Z,97.41
2017-11-08T11:59:40.672Z,97.50
2017-11-08T12:00:40.736Z,97.60
2017-11-08T12:02:35.153Z,97.12
2017-11-08T12:03:35.129Z,97.03
2017-11-08T12:05:29.582Z,97.50
2017-11-08T12:06:29.582Z,97.22
2017-11-08T12:08:22.960Z,97.41
2017-11-08T12:09:22.947Z,97.50
2017-11-08T12:11:16.361Z,96.74
2017-11-08T12:12:16.351Z,97.41
2017-11-08T12:14:09.837Z,97.50
2017-11-08T12:15:09.786Z,97.22
2017-11-08T12:17:03.159Z,97.50
2017-11-08T12:18:03.157Z,98.07
2017-11-08T12:19:57.531Z,97.97
2017-11-08T12:20:57.577Z,98.17
2017-11-08T12:22:51.005Z,98.55
2017-11-08T12:23:50.940Z,98.55
2017-11-08T12:25:44.389Z,97.50
2017-11-08T12:26:44.358Z,97.69
2017-11-08T12:28:37.734Z,97.41
2017-11-08T12:29:37.729Z,97.78
2017-11-08T12:31:31.204Z,97.03
2017-11-08T12:32:31.452Z,96.55
2017-11-08T12:34:24.571Z,95.89
2017-11-08T12:35:24.498Z,97.22
2017-11-08T12:37:17.954Z,97.88
2017-11-08T12:38:17.953Z,97.12
2017-11-08T12:40:12.394Z,96.84
2017-11-08T12:41:12.350Z,96.93
2017-11-08T12:43:05.776Z,96.55
2017-11-08T12:44:06.216Z,97.22
2017-11-08T12:45:59.132Z,96.74
2017-11-08T12:46:59.167Z,97.22
2017-11-08T12:48:52.461Z,97.12
2017-11-08T12:49:52.520Z,97.50
2017-11-08T12:51:46.986Z,96.84
2017-11-08T12:52:46.988Z,96.84
2017-11-08T12:54:40.363Z,97.22
2017-11-08T12:55:40.343Z,96.55
2017-11-08T12:57:33.693Z,97.03
2017-11-08T12:58:33.831Z,96.65
2017-11-08T13:00:27.148Z,95.70
2017-11-08T13:01:27.110Z,95.60
2017-11-08T13:03:21.549Z,96.45
2017-11-08T13:04:21.535Z,97.41
2017-11-08T13:06:14.994Z,96.93
2017-11-08T13:07:14.914Z,96.74
2017-11-08T13:09:08.404Z,97.22
2017-11-08T13:10:08.446Z,97.78
2017-11-08T13:12:01.792Z,97.31
2017-11-08T13:13:01.737Z,97.88
2017-11-08T13:14:55.149Z,98.07
2017-11-08T13:15:55.119Z,97.22
2017-11-08T13:17:49.485Z,97.78
2017-11-08T13:18:49.571Z,98.45
2017-11-08T13:20:42.997Z,97.69
2017-11-08T13:21:42.929Z,97.41
2017-11-08T13:23:36.456Z,98.26
2017-11-08T13:24:44.182Z,98.36
2017-11-08T13:26:39.081Z,98.50
2017-11-08T13:27:30.750Z,98.50
2017-11-08T13:29:25.145Z,98.50
2017-11-08T13:30:25.119Z,98.40
2017-11-08T13:32:18.458Z,98.40
2017-11-08T13:33:18.530Z,98.21
2017-11-08T13:35:12.250Z,98.40
2017-11-08T13:36:12.440Z,98.50
2017-11-08T13:38:08.157Z,98.69
2017-11-08T13:39:08.133Z,98.59
2017-11-08T13:41:01.881Z,98.59
2017-11-08T13:42:01.726Z,98.31
2017-11-08T13:43:55.033Z,98.59
2017-11-08T13:44:55.081Z,98.50
2017-11-08T13:46:48.654Z,99.26
2017-11-08T13:47:48.417Z,98.31
2017-11-08T13:49:41.876Z,98.50
2017-11-08T13:50:41.902Z,98.31
2017-11-08T13:52:35.541Z,98.59
2017-11-08T13:53:35.781Z,98.50
2017-11-08T13:55:28.612Z,98.59
2017-11-08T13:56:28.593Z,98.12
2017-11-08T13:58:21.917Z,98.02
2017-11-08T13:59:21.951Z,98.79
2017-11-08T14:01:15.368Z,99.44
2017-11-08T14:02:15.331Z,99.73
2017-11-08T14:04:08.780Z,98.21
2017-11-08T14:05:08.735Z,98.97
2017-11-08T14:07:02.329Z,98.50
2017-11-08T14:08:02.544Z,98.31
2017-11-08T14:09:55.587Z,98.69
2017-11-08T14:10:55.602Z,98.40
2017-11-08T14:12:56.518Z,97.74
2017-11-08T14:13:48.922Z,98.31
2017-11-08T14:15:42.355Z,98.21
2017-11-08T14:16:42.308Z,97.92
2017-11-08T14:18:35.850Z,97.74
2017-11-08T14:19:36.036Z,97.64
2017-11-08T14:21:29.120Z,98.50
2017-11-08T14:22:29.138Z,98.50
2017-11-08T14:24:22.531Z,99.07
2017-11-08T14:25:22.507Z,99.16
2017-11-08T14:27:15.938Z,98.31
2017-11-08T14:28:15.953Z,98.31
2017-11-08T14:30:09.296Z,97.64
2017-11-08T14:31:09.302Z,98.12
2017-11-08T14:33:02.744Z,98.12
2017-11-08T14:34:02.687Z,98.40
2017-11-08T14:35:56.054Z,98.69
2017-11-08T14:36:56.111Z,98.88
2017-11-08T14:38:50.532Z,98.59
2017-11-08T14:39:50.548Z,98.69
2017-11-08T14:41:43.896Z,98.88
2017-11-08T14:42:43.881Z,98.21
2017-11-08T14:44:38.351Z,98.40
2017-11-08T14:45:38.344Z,98.97
2017-11-08T14:47:31.659Z,99.64
2017-11-08T14:48:31.681Z,99.26
2017-11-08T14:50:25.054Z,99.64
2017-11-08T14:51:25.040Z,99.92
2017-11-08T14:53:18.429Z,98.97
2017-11-08T14:54:18.449Z,98.79
2017-11-08T14:56:19.578Z,99.26
2017-11-08T14:57:11.910Z,99.64
2017-11-08T14:59:05.216Z,99.44
2017-11-08T15:00:05.265Z,99.73
2017-11-08T15:01:58.658Z,99.54
2017-11-08T15:02:58.690Z,99.99
2017-11-08T15:04:53.761Z,99.99
2017-11-08T15:05:54.202Z,99.64
2017-11-08T15:07:47.125Z,98.21
2017-11-08T15:08:47.164Z,98.97
2017-11-08T15:11:41.663Z,98.88
2017-11-08T15:13:35.279Z,98.88
2017-11-08T15:14:38.124Z,98.97
2017-11-08T15:16:28.698Z,99.64
2017-11-08T15:17:29.028Z,99.64
2017-11-08T15:19:22.250Z,99.44
2017-11-08T15:20:22.081Z,99.99
2017-11-08T15:22:16.827Z,99.99
2017-11-08T15:25:09.458Z,99.99
2017-11-08T15:26:09.482Z,99.99
2017-11-08T15:28:02.876Z,99.99
2017-11-08T15:29:02.758Z,99.99
2017-11-08T15:30:56.125Z,99.99
2017-11-08T15:31:56.145Z,99.99
2017-11-08T15:33:52.209Z,99.99
2017-11-08T15:34:49.511Z,99.99
2017-11-08T15:36:43.915Z,99.73
2017-11-08T15:37:43.952Z,99.99
2017-11-08T15:39:38.013Z,99.54
2017-11-08T15:40:37.282Z,99.99
2017-11-08T15:42:30.709Z,99.99
2017-11-08T15:43:30.689Z,99.99
2017-11-08T15:45:24.057Z,99.99
2017-11-08T15:46:24.075Z,99.83
2017-11-08T15:48:19.412Z,99.64
2017-11-08T15:49:17.500Z,99.99
2017-11-08T15:51:10.876Z,99.99
2017-11-08T15:52:11.519Z,99.99
2017-11-08T15:54:04.283Z,99.99
2017-11-08T15:55:04.297Z,99.99
2017-11-08T15:56:57.663Z,99.99
2017-11-08T15:57:57.676Z,99.99
2017-11-08T15:59:51.181Z,99.99
2017-11-08T16:00:51.110Z,99.99
2017-11-08T16:02:44.442Z,99.99
2017-11-08T16:03:44.438Z,99.99
2017-11-08T16:05:38.929Z,99.99
2017-11-08T16:06:39.023Z,99.99
2017-11-08T16:08:32.247Z,99.99
2017-11-08T16:09:32.269Z,99.99
2017-11-08T16:11:25.661Z,99.99
2017-11-08T16:12:25.672Z,99.99
2017-11-08T16:14:19.868Z,99.99
2017-11-08T16:15:19.881Z,99.99
2017-11-08T16:17:13.308Z,99.99
2017-11-08T16:18:13.283Z,99.99
2017-11-08T16:20:06.682Z,99.99
2017-11-08T16:21:06.687Z,99.99
2017-11-08T16:23:00.075Z,99.99
2017-11-08T16:24:00.084Z,99.99
2017-11-08T16:25:53.497Z,99.99
2017-11-08T16:26:53.486Z,99.99
2017-11-08T16:28:46.839Z,99.99
2017-11-08T16:29:46.849Z,99.99
2017-11-08T16:31:40.250Z,99.99
2017-11-08T16:32:40.374Z,99.99
2017-11-08T16:34:35.279Z,99.99
2017-11-08T16:35:33.682Z,99.99
2017-11-08T16:37:27.127Z,99.99
2017-11-08T16:38:27.081Z,99.99
2017-11-08T16:40:20.406Z,99.99
2017-11-08T16:41:20.425Z,99.99
2017-11-08T16:43:13.816Z,99.99
2017-11-08T16:44:13.949Z,99.99
2017-11-08T16:46:07.191Z,99.99
2017-11-08T16:47:07.197Z,99.99
2017-11-08T16:49:00.708Z,99.99
2017-11-08T16:50:00.702Z,99.99
2017-11-08T16:51:55.053Z,99.99
2017-11-08T16:52:55.063Z,99.99
2017-11-08T16:54:48.532Z,99.99
2017-11-08T16:55:48.516Z,99.99
2017-11-08T16:57:42.854Z,99.99
2017-11-08T16:58:42.924Z,99.99
2017-11-08T17:00:38.329Z,99.99
2017-11-08T17:01:38.454Z,99.99
2017-11-08T17:03:31.592Z,99.99
2017-11-08T17:04:31.680Z,99.99
2017-11-08T17:06:25.169Z,99.99
2017-11-08T17:07:25.051Z,99.99
2017-11-08T17:09:18.517Z,99.99
2017-11-08T17:10:18.422Z,99.99
2017-11-08T17:12:12.865Z,99.99
2017-11-08T17:13:12.885Z,99.99
2017-11-08T17:15:08.252Z,99.99
2017-11-08T17:16:08.206Z,99.99
2017-11-08T17:18:01.624Z,99.99
2017-11-08T17:19:01.627Z,99.99
2017-11-08T17:20:55.038Z,99.99
2017-11-08T17:21:54.991Z,99.99
2017-11-08T17:23:48.441Z,99.99
2017-11-08T17:24:48.448Z,99.99
2017-11-08T17:26:41.822Z,99.99
2017-11-08T17:27:41.831Z,99.99
2017-11-08T17:29:35.167Z,99.99
2017-11-08T17:30:35.166Z,99.99
2017-11-08T17:32:28.530Z,99.99
2017-11-08T17:33:28.601Z,99.99
2017-11-08T17:35:22.006Z,99.99
2017-11-08T17:36:21.944Z,99.99
2017-11-08T17:38:15.353Z,99.99
2017-11-08T17:39:15.361Z,99.99
2017-11-08T17:41:09.744Z,99.99
2017-11-08T17:42:09.747Z,99.99
2017-11-08T17:44:03.129Z,99.99
2017-11-08T17:45:03.159Z,99.99
2017-11-08T17:46:56.538Z,99.99
2017-11-08T17:47:56.554Z,99.99
2017-11-08T17:49:49.939Z,99.99
2017-11-08T17:50:49.941Z,99.99
2017-11-08T17:52:44.309Z,99.99
2017-11-08T17:53:44.321Z,99.99
2017-11-08T17:55:37.712Z,99.99
2017-11-08T17:56:37.702Z,99.99
2017-11-08T17:58:31.100Z,99.99
2017-11-08T17:59:31.410Z,99.99
2017-11-08T18:01:24.544Z,99.99
2017-11-08T18:02:24.579Z,99.99
2017-11-08T18:04:17.891Z,99.99
2017-11-08T18:05:17.956Z,99.99
2017-11-08T18:07:11.372Z,99.99
2017-11-08T18:08:11.333Z,99.99
2017-11-08T18:10:05.835Z,99.99
2017-11-08T18:11:05.774Z,99.99
2017-11-08T18:13:00.318Z,99.99
2017-11-08T18:13:59.108Z,99.99
2017-11-08T18:15:52.489Z,99.99
2017-11-08T18:16:52.523Z,99.99
2017-11-08T18:18:45.927Z,99.99
2017-11-08T18:19:45.957Z,99.99
2017-11-08T18:21:39.395Z,99.99
2017-11-08T18:22:39.339Z,99.99
2017-11-08T18:24:32.705Z,99.99
2017-11-08T18:25:32.707Z,99.99
2017-11-08T18:27:26.161Z,99.99
2017-11-08T18:28:26.124Z,99.99
2017-11-08T18:30:19.469Z,99.99
2017-11-08T18:31:19.529Z,99.99
2017-11-08T18:33:13.939Z,99.99
2017-11-08T18:34:13.905Z,99.99
2017-11-08T18:36:07.269Z,99.99
2017-11-08T18:37:07.349Z,99.99
2017-11-08T18:39:00.720Z,99.99
2017-11-08T18:40:00.718Z,99.99
2017-11-08T18:41:54.055Z,99.99